Suphan Buri, Thailand

12:47 AM ICT on July 08, 2015 (GMT +0700)
69 Moo 3 | | Change Station
CLOSE
Current Station
Personal Weather Station
Location: Bangkok,
Elevation: 0 ft
Nearby Weather Stations

Elev 0 ft 14.16 °N, 99.96 °E | Updated 15 seconds ago

Mostly Cloudy
Mostly Cloudy
81.7 °F
Feels Like 88 °F
N
0.0
Wind Variable Wind from SSW
Gusts 0.0 mph

Today
High -- | Low -- °F
--% Chance of Precip.
Yesterday
High -- | Low -- °F
Precip. -- in
5:56 AM 6:52 PM
Waning Gibbous, 63% visible
Pressure 29.68 in
Visibility 6.2 miles
Clouds Few 2500 ft
Mostly Cloudy 12000 ft
Mostly Cloudy 30000 ft
Heat Index 88 °F
Dew Point 75 °F
Humidity 79%
Rainfall 0.00 in
Snow Depth Not available.
UV 0.0 out of 12
Pollen Not available.
Air Quality Not available.
Flu Activity Not available.
METAR VTBD 071730Z 24008KT 9999 FEW025 BKN120 BKN300 31/23 Q1005 NOSIG

More Conditions Fewer Conditions

Pressure 29.68 in
Visibility 6.2 miles
Clouds Few 2500 ft
Mostly Cloudy 12000 ft
Mostly Cloudy 30000 ft
Heat Index 88 °F
Dew Point 75 °F
Humidity 79%
Rainfall 0.00 in
Snow Depth Not available.
UV 0.0 out of 12
Pollen Not available.
Air Quality Not available.
Flu Activity Not available.
METAR VTBD 071730Z 24008KT 9999 FEW025 BKN120 BKN300 31/23 Q1005 NOSIG

More Conditions Fewer Conditions

10-Day Weather Forecast

×

Almanac

Astronomy

Jul. 08, 2015 Rise Set
Actual Time
Civil Twilight
Nautical Twilight
Astronomical Twilight
Moon
Length of Visible Light
Length of Day
Tomorrow will be .
, % of the Moon is Illuminated

Today's Extremes

Country Highs Country Lows

Community

WunderPhotos

Upload Photos

1,835,858 photos uploaded!

WunderBlogs® & News

Nearby

Air Quality

  Air Quality AQ Index Pollutant
Not available.

Snow Depth

Station Depth Elevation

Earthquake Activity

City Distance Mag. Time & Date
Minimum magnitude displayed is 2.5.

Coastal Water Temperatures

Place Temperature

Stations

Nearby Weather Stations

Station Location Temp. Windchill Dew Point Humidity Wind Precip. Elev Updated Type